CheckWX is a tool to help pilots better visualize weather data.  It is not intended as a substitute for an official pre-flight weather briefing.

17:49:22 UTC

PAMY METAR
Mekoryuk Airport
Mekoryuk, Alaska, USA
Current

53 mins ago

PAMY 171656Z AUTO 02014KT 6SM -SN OVC022 M09/M12 A2954 RMK AO2 SLP006 P0000 T10891122 FZRANO
Observed
Nov-17 @ 16:56 UTC
Wind
  • 020° at 14 KTS
Visibility
6 SM
Flight Rules
MVFR
Conditions
Light Snow
Cloud Levels
  • Overcast at 2,200' AGL
Temperature
-9°C / 16°F
Dewpoint
-12°C / 10°F
Humidity
79%
Altimeter
29.54" Hg
Pressure
1000.32 hPa
Current Rain
0.01"
Previous

2 hours ago

PAMY 171556Z AUTO 02018G22KT 9SM -SN OVC022 M09/M12 A2953 RMK AO2 SLP002 P0000 T10891122 FZRANO
Observed
Nov-17 @ 15:56 UTC
Wind
  • 020° at 18 KTS
  • Gusting to 22 KTS
Visibility
9 SM
Flight Rules
MVFR
Conditions
Light Snow
Cloud Levels
  • Overcast at 2,200' AGL
Temperature
-9°C / 16°F
Dewpoint
-12°C / 10°F
Humidity
79%
Altimeter
29.53" Hg
Pressure
1000.02 hPa
Current Rain
0.01"
Previous

3 hours ago

PAMY 171456Z AUTO 01020KT 9SM -SN OVC022 M09/M13 A2953 RMK AO2 SLP000 P0000 60000 T10941128 53006 FZRANO
Observed
Nov-17 @ 14:56 UTC
Wind
  • 010° at 20 KTS
Visibility
9 SM
Flight Rules
MVFR
Conditions
Light Snow
Cloud Levels
  • Overcast at 2,200' AGL
Temperature
-9°C / 16°F
Dewpoint
-13°C / 9°F
Humidity
73%
Altimeter
29.53" Hg
Pressure
1000.02 hPa
Current Rain
0.01"